createdAt,value
2018-04-20T08:14:24.387Z,19.45
2018-04-20T08:15:24.312Z,19.62
2018-04-20T08:16:24.261Z,19.71
2018-04-20T08:17:24.221Z,19.84
2018-04-20T08:18:24.184Z,19.64
2018-04-20T08:19:24.136Z,19.60
2018-04-20T08:20:24.099Z,19.57
2018-04-20T08:21:24.061Z,19.77
2018-04-20T08:22:24.009Z,19.82
2018-04-20T08:23:23.970Z,19.79
2018-04-20T08:26:39.540Z,19.93
2018-04-20T08:27:39.480Z,20.12
2018-04-20T08:29:32.278Z,20.42
2018-04-20T08:30:32.239Z,20.25
2018-04-20T08:31:32.192Z,20.08
2018-04-20T08:32:32.152Z,20.18
2018-04-20T08:33:32.109Z,20.23
2018-04-20T08:34:32.069Z,20.17
2018-04-20T08:35:32.028Z,20.14
2018-04-20T08:36:31.985Z,20.26
2018-04-20T08:37:31.946Z,20.70
2018-04-20T08:38:31.907Z,20.85
2018-04-20T08:39:31.881Z,20.73
2018-04-20T08:40:31.823Z,20.55
2018-04-20T08:41:31.784Z,20.56
2018-04-20T08:42:31.748Z,20.56
2018-04-20T08:43:31.704Z,20.64
2018-04-20T08:44:31.664Z,20.73
2018-04-20T08:45:31.623Z,20.80
2018-04-20T08:46:32.650Z,21.00
2018-04-20T08:47:32.306Z,21.11
2018-04-20T08:48:31.515Z,21.10
2018-04-20T08:49:32.389Z,21.14
2018-04-20T08:50:31.428Z,21.13
2018-04-20T08:51:31.383Z,21.19
2018-04-20T08:52:31.346Z,21.38
2018-04-20T08:53:31.304Z,21.50
2018-04-20T08:54:31.268Z,21.55
2018-04-20T08:55:31.222Z,21.59
2018-04-20T08:56:31.182Z,21.75
2018-04-20T08:57:31.144Z,21.77
2018-04-20T08:58:31.102Z,21.90
2018-04-20T08:59:31.075Z,21.94
2018-04-20T09:00:31.048Z,21.77
2018-04-20T09:01:30.983Z,21.78
2018-04-20T09:02:30.940Z,21.69
2018-04-20T09:03:30.903Z,21.69
2018-04-20T09:04:30.860Z,21.77
2018-04-20T09:05:30.832Z,21.55
2018-04-20T09:06:30.784Z,21.51
2018-04-20T09:07:30.747Z,21.73
2018-04-20T09:08:30.703Z,21.80
2018-04-20T09:09:30.675Z,21.82
2018-04-20T09:10:30.639Z,21.67
2018-04-20T09:11:30.601Z,21.50
2018-04-20T09:12:30.545Z,21.28
2018-04-20T09:13:30.602Z,21.11
2018-04-20T09:14:30.526Z,21.41
2018-04-20T09:15:30.446Z,21.58
2018-04-20T09:16:30.386Z,21.90
2018-04-20T09:17:30.403Z,22.06
2018-04-20T09:18:30.331Z,22.13
2018-04-20T09:19:30.277Z,22.03
2018-04-20T09:20:30.244Z,21.75
2018-04-20T09:21:30.192Z,21.50
2018-04-20T09:22:30.161Z,21.26
2018-04-20T09:23:30.123Z,21.43
2018-04-20T09:24:30.086Z,21.60
2018-04-20T09:25:30.061Z,21.75
2018-04-20T09:26:30.005Z,21.94
2018-04-20T09:27:29.958Z,22.22
2018-04-20T09:28:29.945Z,22.41
2018-04-20T09:29:29.961Z,22.27
2018-04-20T09:30:29.840Z,22.33
2018-04-20T09:31:29.832Z,22.51
2018-04-20T09:32:29.759Z,22.55
2018-04-20T09:33:29.743Z,22.66
2018-04-20T09:34:29.684Z,22.85
2018-04-20T09:35:32.382Z,23.01
2018-04-20T09:36:29.607Z,22.78
2018-04-20T09:37:29.565Z,22.80
2018-04-20T09:38:29.529Z,22.74
2018-04-20T09:39:29.501Z,22.92
2018-04-20T09:40:29.446Z,22.96
2018-04-20T09:41:29.410Z,22.96
2018-04-20T09:42:29.376Z,23.06
2018-04-20T09:43:29.328Z,22.67
2018-04-20T09:44:29.298Z,22.48
2018-04-20T09:45:29.256Z,22.53
2018-04-20T09:46:29.217Z,22.62
2018-04-20T09:47:29.185Z,22.64
2018-04-20T09:48:29.138Z,22.89
2018-04-20T09:49:29.106Z,22.86
2018-04-20T09:50:29.060Z,22.68
2018-04-20T09:51:29.076Z,22.59
2018-04-20T09:52:28.988Z,22.70
2018-04-20T09:53:28.949Z,22.78
2018-04-20T09:54:29.120Z,22.80
2018-04-20T09:55:28.869Z,22.78
2018-04-20T09:56:28.826Z,22.67
2018-04-20T09:57:28.788Z,22.40
2018-04-20T09:58:28.749Z,22.56
2018-04-20T09:59:28.710Z,23.08
2018-04-20T10:00:28.729Z,23.06
2018-04-20T10:01:28.639Z,23.26
2018-04-20T10:02:28.601Z,23.29
2018-04-20T10:03:28.556Z,23.22
2018-04-20T10:04:28.518Z,23.26
2018-04-20T10:05:28.535Z,23.06
2018-04-20T10:06:28.442Z,23.45
2018-04-20T10:07:28.402Z,23.54
2018-04-20T10:08:28.365Z,23.74
2018-04-20T10:09:28.325Z,23.56
2018-04-20T10:10:28.292Z,23.42
2018-04-20T10:11:28.249Z,23.25
2018-04-20T10:12:28.219Z,23.01
2018-04-20T10:13:28.171Z,22.85
2018-04-20T10:14:28.141Z,23.08
2018-04-20T10:15:28.105Z,22.85
2018-04-20T10:16:28.055Z,22.95
2018-04-20T10:17:28.025Z,22.71
2018-04-20T10:18:27.990Z,22.44
2018-04-20T10:19:27.941Z,22.21
2018-04-20T10:20:27.904Z,22.12
2018-04-20T10:21:27.869Z,22.19
2018-04-20T10:22:27.833Z,22.13
2018-04-20T10:23:27.795Z,22.67
2018-04-20T10:24:27.755Z,22.91
2018-04-20T10:25:27.718Z,23.14
2018-04-20T10:26:27.677Z,22.77
2018-04-20T10:27:27.646Z,22.62
2018-04-20T10:28:27.601Z,22.49
2018-04-20T10:29:27.568Z,22.55
2018-04-20T10:30:27.532Z,22.55
2018-04-20T10:31:27.536Z,22.22
2018-04-20T10:32:27.442Z,22.33
2018-04-20T10:33:27.412Z,22.34
2018-04-20T10:34:27.373Z,22.30
2018-04-20T10:35:27.335Z,22.40
2018-04-20T10:36:27.313Z,22.46
2018-04-20T10:37:27.265Z,22.73
2018-04-20T10:38:27.232Z,22.86
2018-04-20T10:39:27.177Z,23.15
2018-04-20T10:40:27.143Z,23.34
2018-04-20T10:41:27.101Z,23.44
2018-04-20T10:42:27.155Z,23.71
2018-04-20T10:43:27.026Z,24.01
2018-04-20T10:44:26.991Z,23.98
2018-04-20T10:45:26.947Z,24.11
2018-04-20T10:46:26.911Z,24.28
2018-04-20T10:47:26.878Z,24.15
2018-04-20T10:48:26.878Z,24.22
2018-04-20T10:49:26.794Z,24.36
2018-04-20T10:50:26.760Z,24.37
2018-04-20T10:51:26.718Z,23.98
2018-04-20T10:52:26.686Z,23.63
2018-04-20T10:53:26.632Z,23.10
2018-04-20T10:54:26.607Z,23.10
2018-04-20T10:55:26.569Z,23.17
2018-04-20T10:56:26.529Z,23.48
2018-04-20T10:57:26.482Z,23.84
2018-04-20T10:58:26.453Z,24.16
2018-04-20T10:59:26.422Z,24.41
2018-04-20T11:00:26.369Z,24.13
2018-04-20T11:01:26.343Z,23.85
2018-04-20T11:02:26.299Z,23.94
2018-04-20T11:03:26.326Z,24.10
2018-04-20T11:04:26.223Z,24.21
2018-04-20T11:05:26.186Z,24.07
2018-04-20T11:06:26.150Z,24.08
2018-04-20T11:07:26.136Z,23.91
2018-04-20T11:08:26.081Z,23.64
2018-04-20T11:09:26.032Z,24.10
2018-04-20T11:10:25.993Z,24.43
2018-04-20T11:11:25.981Z,24.65
2018-04-20T11:12:25.918Z,24.63
2018-04-20T11:13:25.882Z,24.60
2018-04-20T11:14:25.846Z,24.47
2018-04-20T11:15:25.805Z,24.37
2018-04-20T11:16:25.768Z,24.08
2018-04-20T11:17:25.724Z,24.11
2018-04-20T11:18:25.691Z,23.89
2018-04-20T11:19:25.653Z,23.89
2018-04-20T11:20:25.660Z,24.11
2018-04-20T11:21:25.573Z,24.33
2018-04-20T11:22:25.603Z,24.23
2018-04-20T11:23:25.500Z,24.48
2018-04-20T11:24:25.524Z,24.36
2018-04-20T11:25:25.428Z,24.28
2018-04-20T11:26:25.386Z,24.37
2018-04-20T11:27:25.369Z,24.44
2018-04-20T11:28:25.312Z,24.18
2018-04-20T11:29:25.275Z,24.23
2018-04-20T11:30:25.234Z,24.45
2018-04-20T11:31:25.197Z,24.70
2018-04-20T11:32:25.159Z,24.76
2018-04-20T11:33:25.127Z,24.81
2018-04-20T11:34:25.089Z,24.99
2018-04-20T11:35:25.055Z,25.00
2018-04-20T11:36:25.011Z,25.12
2018-04-20T11:37:24.972Z,25.04
2018-04-20T11:38:24.933Z,24.99
2018-04-20T11:39:24.897Z,24.79
2018-04-20T11:40:24.863Z,24.66
2018-04-20T11:41:24.822Z,24.70
2018-04-20T11:42:24.784Z,24.68
2018-04-20T11:43:24.747Z,24.51
2018-04-20T11:44:24.708Z,24.45
2018-04-20T11:45:24.672Z,24.08
2018-04-20T11:46:24.630Z,24.00
2018-04-20T11:47:24.609Z,24.03
2018-04-20T11:48:24.560Z,24.15
2018-04-20T11:49:24.522Z,24.37
2018-04-20T11:50:24.486Z,24.55
2018-04-20T11:51:24.455Z,24.63
2018-04-20T11:52:24.417Z,24.62
2018-04-20T11:53:24.375Z,24.63
2018-04-20T11:54:24.335Z,24.65
2018-04-20T11:55:24.300Z,24.76
2018-04-20T11:56:24.261Z,24.84
2018-04-20T11:57:24.223Z,24.97
2018-04-20T11:58:24.186Z,25.04
2018-04-20T11:59:24.154Z,24.97
2018-04-20T12:00:24.111Z,24.85
2018-04-20T12:01:24.074Z,24.91
2018-04-20T12:02:24.040Z,24.74
2018-04-20T12:03:24.001Z,24.65
2018-04-20T12:04:23.963Z,24.66
2018-04-20T12:05:23.924Z,24.62
2018-04-20T12:06:23.891Z,24.81
2018-04-20T12:07:23.852Z,24.96
2018-04-20T12:08:23.813Z,24.97
2018-04-20T12:09:23.777Z,25.11
2018-04-20T12:10:23.738Z,25.23
2018-04-20T12:11:23.703Z,25.34
2018-04-20T12:12:23.665Z,25.59
2018-04-20T12:13:23.627Z,25.75
2018-04-20T12:14:23.592Z,25.95
2018-04-20T12:15:23.553Z,26.00
2018-04-20T12:16:23.517Z,25.88
2018-04-20T12:17:23.479Z,25.56
2018-04-20T12:18:23.443Z,25.59
2018-04-20T12:19:23.426Z,25.81
2018-04-20T12:20:23.369Z,25.95
2018-04-20T12:21:23.359Z,26.04
2018-04-20T12:22:23.294Z,26.10
2018-04-20T12:23:23.257Z,25.89
2018-04-20T12:24:23.220Z,25.61
2018-04-20T12:25:23.185Z,25.58
2018-04-20T12:26:23.151Z,25.40
2018-04-20T12:27:23.113Z,25.34
2018-04-20T12:28:23.077Z,25.33
2018-04-20T12:29:23.040Z,25.49
2018-04-20T12:30:23.003Z,25.63
2018-04-20T12:31:22.965Z,25.77
2018-04-20T12:32:22.928Z,25.78
2018-04-20T12:33:22.889Z,25.58
2018-04-20T12:34:22.851Z,25.41
2018-04-20T12:35:22.820Z,25.27
2018-04-20T12:36:22.779Z,25.41
2018-04-20T12:37:22.749Z,25.67
2018-04-20T12:38:22.706Z,25.82
2018-04-20T12:39:22.670Z,25.78
2018-04-20T12:40:22.632Z,25.93
2018-04-20T12:41:22.638Z,25.90
2018-04-20T12:42:22.560Z,26.05
2018-04-20T12:43:22.522Z,26.20
2018-04-20T12:44:22.538Z,26.12
2018-04-20T12:45:22.449Z,26.15
2018-04-20T12:46:22.415Z,26.19
2018-04-20T12:47:22.375Z,26.11
2018-04-20T12:48:22.337Z,25.78
2018-04-20T12:49:22.301Z,25.70
2018-04-20T12:50:22.267Z,25.67
2018-04-20T12:51:22.295Z,25.67
2018-04-20T12:52:22.198Z,25.61
2018-04-20T12:53:22.156Z,25.78
2018-04-20T12:54:22.119Z,25.83
2018-04-20T12:55:22.079Z,25.95
2018-04-20T12:56:22.044Z,26.03
2018-04-20T12:57:22.059Z,26.12
2018-04-20T12:58:21.974Z,26.11
2018-04-20T12:59:21.942Z,26.23
2018-04-20T13:00:21.901Z,26.26
2018-04-20T13:01:21.872Z,26.11
2018-04-20T13:02:21.828Z,26.20
2018-04-20T13:03:21.791Z,26.07
2018-04-20T13:04:21.758Z,26.15
2018-04-20T13:05:21.726Z,26.30
2018-04-20T13:06:21.685Z,26.34
2018-04-20T13:07:21.645Z,26.42
2018-04-20T13:08:21.608Z,26.46
2018-04-20T13:09:21.576Z,26.46
2018-04-20T13:10:21.538Z,26.48
2018-04-20T13:11:21.501Z,26.43
2018-04-20T13:12:21.464Z,26.60
2018-04-20T13:13:21.428Z,26.49
2018-04-20T13:14:21.392Z,26.41
2018-04-20T13:15:21.354Z,26.30
2018-04-20T13:16:21.317Z,26.16
2018-04-20T13:17:21.278Z,26.08
2018-04-20T13:18:21.265Z,26.11
2018-04-20T13:19:21.218Z,26.36
2018-04-20T13:20:21.177Z,26.45
2018-04-20T13:21:21.136Z,26.52
2018-04-20T13:22:21.101Z,26.56
2018-04-20T13:23:21.065Z,26.61
2018-04-20T13:24:21.031Z,26.60
2018-04-20T13:25:20.993Z,26.34
2018-04-20T13:26:20.957Z,26.33
2018-04-20T13:27:20.922Z,26.33
2018-04-20T13:28:20.884Z,26.39
2018-04-20T13:29:20.849Z,26.52
2018-04-20T13:30:20.812Z,26.58
2018-04-20T13:31:20.806Z,26.31
2018-04-20T13:32:20.737Z,26.12
2018-04-20T13:33:20.702Z,26.15
2018-04-20T13:34:20.667Z,26.27
2018-04-20T13:35:20.632Z,26.38
2018-04-20T13:36:20.596Z,26.33
2018-04-20T13:37:20.563Z,26.43
2018-04-20T13:38:20.523Z,26.53
2018-04-20T13:39:20.485Z,26.53
2018-04-20T13:40:20.450Z,26.61
2018-04-20T13:41:20.414Z,26.63
2018-04-20T13:42:20.376Z,26.76
2018-04-20T13:43:20.394Z,26.79
2018-04-20T13:44:20.301Z,26.71
2018-04-20T13:45:20.266Z,26.73
2018-04-20T13:46:20.235Z,26.78
2018-04-20T13:47:20.202Z,26.63
2018-04-20T13:48:20.159Z,26.58
2018-04-20T13:49:20.121Z,26.46
2018-04-20T13:50:20.089Z,26.45
2018-04-20T13:51:20.050Z,26.43
2018-04-20T13:52:20.012Z,26.39
2018-04-20T13:53:19.978Z,26.19
2018-04-20T13:54:19.940Z,26.24
2018-04-20T13:55:19.904Z,26.16
2018-04-20T13:56:19.867Z,25.92
2018-04-20T13:57:19.832Z,26.10
2018-04-20T13:58:19.796Z,26.16
2018-04-20T13:59:19.761Z,26.34
2018-04-20T14:00:19.727Z,26.38
2018-04-20T14:01:19.687Z,26.49
2018-04-20T14:02:19.652Z,26.46
2018-04-20T14:03:19.617Z,26.63
2018-04-20T14:04:19.579Z,26.76
2018-04-20T14:05:19.548Z,26.78
2018-04-20T14:06:19.510Z,26.83
2018-04-20T14:07:19.472Z,27.01
2018-04-20T14:08:19.434Z,27.01
2018-04-20T14:09:19.399Z,27.10
2018-04-20T14:10:19.363Z,26.83
2018-04-20T14:11:19.327Z,26.57
2018-04-20T14:12:19.290Z,26.46
2018-04-20T14:13:19.254Z,26.57
2018-04-20T14:14:19.266Z,26.67
2018-04-20T14:15:19.183Z,26.49
2018-04-20T14:16:19.147Z,26.45
2018-04-20T14:17:19.109Z,26.52
2018-04-20T14:18:19.074Z,26.48
2018-04-20T14:19:19.037Z,26.27
2018-04-20T14:20:19.001Z,26.34
2018-04-20T14:21:18.967Z,26.43
2018-04-20T14:22:18.933Z,26.57
2018-04-20T14:23:18.894Z,26.63
2018-04-20T14:24:18.859Z,26.65
2018-04-20T14:25:18.823Z,26.67
2018-04-20T14:26:18.844Z,26.64
2018-04-20T14:27:18.756Z,26.57
2018-04-20T14:28:18.712Z,26.57
2018-04-20T14:29:18.678Z,26.52
2018-04-20T14:30:18.639Z,26.46
2018-04-20T14:31:18.602Z,26.42
2018-04-20T14:32:18.569Z,26.41
2018-04-20T14:33:18.532Z,26.48
2018-04-20T14:34:18.501Z,26.53
2018-04-20T14:35:18.462Z,26.46
2018-04-20T14:36:18.424Z,26.48
2018-04-20T14:37:18.388Z,26.56
2018-04-20T14:38:18.356Z,26.60
2018-04-20T14:39:18.325Z,26.57
2018-04-20T14:40:18.287Z,26.79
2018-04-20T14:41:18.240Z,26.80
2018-04-20T14:42:18.210Z,26.78
2018-04-20T14:43:18.172Z,26.90
2018-04-20T14:44:18.135Z,26.88
2018-04-20T14:45:18.097Z,26.83
2018-04-20T14:46:18.061Z,26.88
2018-04-20T14:47:18.026Z,26.86
2018-04-20T14:48:17.990Z,26.73
2018-04-20T14:49:17.955Z,26.65
2018-04-20T14:50:17.920Z,26.56
2018-04-20T14:51:17.886Z,26.53
2018-04-20T14:52:17.850Z,26.64
2018-04-20T14:53:17.810Z,26.75
2018-04-20T14:54:17.775Z,26.78
2018-04-20T14:55:17.738Z,26.78
2018-04-20T14:56:17.704Z,26.80
2018-04-20T14:57:17.667Z,26.79
2018-04-20T14:58:17.629Z,26.90
2018-04-20T14:59:17.592Z,26.93
2018-04-20T15:00:17.556Z,27.00
2018-04-20T15:01:17.524Z,26.89
2018-04-20T15:02:17.487Z,26.83
2018-04-20T15:03:17.451Z,26.78
2018-04-20T15:04:17.413Z,26.86
2018-04-20T15:05:17.377Z,26.88
2018-04-20T15:06:17.341Z,26.93
2018-04-20T15:07:17.306Z,26.89
2018-04-20T15:08:17.269Z,27.07
2018-04-20T15:09:17.232Z,27.13
2018-04-20T15:10:17.196Z,27.13
2018-04-20T15:11:17.160Z,27.15
2018-04-20T15:12:17.126Z,27.10
2018-04-20T15:13:17.156Z,27.00
2018-04-20T15:14:17.053Z,27.07
2018-04-20T15:15:17.014Z,27.05
2018-04-20T15:16:16.984Z,27.04
2018-04-20T15:17:16.944Z,27.07
2018-04-20T15:18:16.911Z,27.01
2018-04-20T15:19:16.874Z,27.19
2018-04-20T15:20:16.838Z,27.22
2018-04-20T15:21:16.803Z,27.20
2018-04-20T15:22:16.765Z,27.25
2018-04-20T15:23:16.732Z,27.23
2018-04-20T15:24:16.697Z,27.30
2018-04-20T15:25:16.660Z,27.47
2018-04-20T15:26:16.628Z,27.64
2018-04-20T15:27:16.583Z,27.75
2018-04-20T15:28:16.554Z,27.79
2018-04-20T15:29:16.515Z,27.83
2018-04-20T15:30:16.478Z,27.68
2018-04-20T15:31:16.445Z,27.68
2018-04-20T15:32:16.418Z,27.76
2018-04-20T15:33:16.373Z,27.83
2018-04-20T15:34:16.335Z,27.90
2018-04-20T15:35:16.301Z,27.85
2018-04-20T15:36:16.264Z,27.82
2018-04-20T15:37:16.236Z,27.73
2018-04-20T15:38:16.197Z,27.73
2018-04-20T15:39:16.158Z,27.75
2018-04-20T15:40:16.123Z,27.94
2018-04-20T15:41:16.088Z,27.93
2018-04-20T15:42:16.050Z,27.93
2018-04-20T15:43:16.016Z,28.01
2018-04-20T15:44:15.985Z,28.25
2018-04-20T15:45:15.946Z,28.50
2018-04-20T15:46:15.913Z,29.09
2018-04-20T15:47:15.875Z,29.65
2018-04-20T15:48:15.842Z,29.73
2018-04-20T15:49:15.806Z,30.14
2018-04-20T15:50:15.767Z,30.35
2018-04-20T15:51:15.733Z,30.88
2018-04-20T15:52:15.702Z,30.92
2018-04-20T15:53:15.661Z,31.04
2018-04-20T15:54:15.636Z,31.46
2018-04-20T15:55:15.593Z,32.01
2018-04-20T15:56:15.560Z,32.09
2018-04-20T15:57:15.525Z,31.87
2018-04-20T15:58:15.493Z,31.64
2018-04-20T15:59:15.455Z,31.66
2018-04-20T16:00:15.428Z,31.20
2018-04-20T16:01:15.389Z,31.14
2018-04-20T16:02:15.351Z,31.07
2018-04-20T16:03:15.317Z,31.04
2018-04-20T16:04:15.284Z,31.20
2018-04-20T16:05:15.248Z,31.57
2018-04-20T16:06:15.215Z,31.56
2018-04-20T16:07:15.181Z,31.98
2018-04-20T16:08:15.180Z,32.33
2018-04-20T16:09:15.112Z,32.46
2018-04-20T16:10:15.079Z,32.63
2018-04-20T16:11:15.045Z,32.11
2018-04-20T16:12:15.010Z,32.19
2018-04-20T16:13:14.977Z,32.63
2018-04-20T16:14:14.945Z,32.45
2018-04-20T16:15:14.912Z,32.27
2018-04-20T16:16:14.883Z,32.27
2018-04-20T16:17:14.848Z,32.50
2018-04-20T16:18:14.809Z,32.63
2018-04-20T16:19:14.776Z,32.54
2018-04-20T16:20:14.745Z,32.45
2018-04-20T16:21:14.710Z,32.35
2018-04-20T16:22:14.677Z,31.99
2018-04-20T16:23:14.678Z,31.71
2018-04-20T16:24:14.608Z,31.54
2018-04-20T16:25:14.576Z,31.61
2018-04-20T16:26:14.545Z,31.38
2018-04-20T16:27:14.511Z,31.48
2018-04-20T16:28:14.480Z,31.64
2018-04-20T16:29:14.447Z,31.49
2018-04-20T16:30:14.413Z,31.38
2018-04-20T16:31:14.380Z,31.45
2018-04-20T16:32:14.383Z,31.57
2018-04-20T16:33:14.369Z,31.61
2018-04-20T16:34:14.279Z,32.09
2018-04-20T16:35:14.249Z,32.42
2018-04-20T16:36:14.214Z,32.39
2018-04-20T16:37:14.182Z,32.61
2018-04-20T16:38:14.150Z,32.48
2018-04-20T16:39:14.218Z,32.19
2018-04-20T16:40:14.085Z,32.04
2018-04-20T16:41:14.051Z,31.57
2018-04-20T16:42:14.018Z,31.22
2018-04-20T16:43:13.986Z,31.82
2018-04-20T16:44:13.955Z,32.14
2018-04-20T16:45:13.918Z,31.97
2018-04-20T16:46:13.885Z,31.91
2018-04-20T16:47:13.854Z,31.61
2018-04-20T16:48:13.817Z,31.97
2018-04-20T16:49:13.787Z,32.11
2018-04-20T16:50:13.758Z,32.04
2018-04-20T16:51:13.723Z,32.09
2018-04-20T16:52:13.690Z,32.24
2018-04-20T16:53:13.658Z,32.43
2018-04-20T16:54:13.625Z,32.26
2018-04-20T16:55:13.593Z,31.84
2018-04-20T16:56:13.560Z,31.97
2018-04-20T16:57:13.530Z,32.24
2018-04-20T16:58:13.497Z,32.27
2018-04-20T16:59:13.461Z,31.68
2018-04-20T17:00:13.432Z,31.26
2018-04-20T17:01:13.398Z,30.95
2018-04-20T17:02:13.364Z,31.02
2018-04-20T17:03:13.332Z,31.30
2018-04-20T17:04:13.299Z,31.23
2018-04-20T17:05:13.266Z,31.26
2018-04-20T17:06:13.233Z,31.14
2018-04-20T17:07:13.217Z,31.02
2018-04-20T17:08:13.170Z,31.42
2018-04-20T17:09:13.141Z,31.52
2018-04-20T17:10:13.103Z,31.49
2018-04-20T17:11:13.078Z,31.57
2018-04-20T17:12:13.045Z,31.20
2018-04-20T17:13:13.006Z,31.11
2018-04-20T17:14:12.973Z,31.01
2018-04-20T17:15:12.943Z,30.51
2018-04-20T17:16:12.909Z,30.29
2018-04-20T17:17:12.872Z,29.83
2018-04-20T17:18:12.890Z,29.34
2018-04-20T17:19:12.813Z,29.19
2018-04-20T17:20:12.776Z,28.87
2018-04-20T17:21:12.747Z,28.69
2018-04-20T17:22:12.713Z,28.87
2018-04-20T17:23:12.677Z,29.15
2018-04-20T17:24:12.643Z,29.12
2018-04-20T17:25:12.616Z,28.98
2018-04-20T17:26:12.580Z,28.72
2018-04-20T17:27:12.548Z,28.59
2018-04-20T17:28:12.511Z,28.28
2018-04-20T17:29:12.476Z,28.09
2018-04-20T17:30:12.445Z,27.79
2018-04-20T17:31:12.413Z,27.66
2018-04-20T17:32:12.376Z,27.73
2018-04-20T17:33:12.364Z,27.58
2018-04-20T17:34:12.310Z,27.72
2018-04-20T17:35:12.274Z,27.78
2018-04-20T17:36:12.238Z,27.75
2018-04-20T17:37:12.207Z,27.57
2018-04-20T17:38:12.173Z,27.49
2018-04-20T17:39:12.141Z,27.49
2018-04-20T17:40:12.115Z,27.44
2018-04-20T17:41:12.071Z,27.34
2018-04-20T17:42:12.039Z,27.23
2018-04-20T17:43:12.002Z,27.10
2018-04-20T17:44:11.966Z,27.05
2018-04-20T17:45:11.932Z,26.76
2018-04-20T17:46:11.907Z,26.49
2018-04-20T17:47:11.866Z,26.23
2018-04-20T17:48:11.830Z,26.07
2018-04-20T17:49:11.793Z,25.89
2018-04-20T17:50:11.756Z,25.75
2018-04-20T17:51:11.723Z,25.49
2018-04-20T17:52:11.685Z,25.34
2018-04-20T17:53:11.649Z,25.23
2018-04-20T17:54:11.632Z,25.08
2018-04-20T17:55:11.580Z,25.00
2018-04-20T17:56:11.545Z,24.70
2018-04-20T17:57:11.577Z,24.63
2018-04-20T17:58:11.471Z,24.60
2018-04-20T17:59:11.437Z,24.45
2018-04-20T18:00:11.401Z,24.37
2018-04-20T18:01:11.368Z,24.21
2018-04-20T18:02:11.332Z,24.18
2018-04-20T18:03:11.292Z,24.04
2018-04-20T18:04:11.256Z,23.97
2018-04-20T18:05:11.234Z,23.94
2018-04-20T18:06:11.188Z,23.85
2018-04-20T18:07:11.152Z,23.85
2018-04-20T18:08:11.109Z,23.69
2018-04-20T18:09:11.073Z,23.70
2018-04-20T18:10:11.041Z,23.67
2018-04-20T18:11:10.999Z,23.59
2018-04-20T18:12:10.968Z,23.54
2018-04-20T18:13:10.924Z,23.49
2018-04-20T18:14:10.889Z,23.45
2018-04-20T18:15:10.851Z,23.39
2018-04-20T18:16:10.825Z,23.36
2018-04-20T18:17:10.777Z,23.21
2018-04-20T18:18:10.802Z,23.17
2018-04-20T18:19:10.703Z,23.07
2018-04-20T18:20:10.665Z,23.06
2018-04-20T18:21:10.629Z,23.08
2018-04-20T18:22:10.591Z,22.86
2018-04-20T18:23:10.555Z,22.78
2018-04-20T18:24:10.517Z,22.78
2018-04-20T18:25:10.478Z,22.68
2018-04-20T18:26:10.447Z,22.64
2018-04-20T18:27:10.405Z,22.52
2018-04-20T18:28:10.364Z,22.41
2018-04-20T18:29:10.329Z,22.33
2018-04-20T18:30:10.289Z,22.25
2018-04-20T18:31:10.252Z,22.18
2018-04-20T18:32:10.218Z,22.13
2018-04-20T18:33:10.177Z,22.04
2018-04-20T18:34:10.137Z,21.98
2018-04-20T18:35:10.100Z,21.94
2018-04-20T18:36:10.062Z,21.80
2018-04-20T18:37:10.069Z,21.74
2018-04-20T18:38:09.987Z,21.56
2018-04-20T18:39:09.945Z,21.53
2018-04-20T18:40:09.906Z,21.44
2018-04-20T18:41:09.870Z,21.37
2018-04-20T18:42:09.831Z,21.37
2018-04-20T18:43:09.792Z,21.30
2018-04-20T18:44:09.753Z,21.28
2018-04-20T18:45:09.713Z,21.32
2018-04-20T18:46:09.675Z,21.32
2018-04-20T18:47:09.636Z,21.30
2018-04-20T18:48:09.598Z,21.28
2018-04-20T18:49:09.561Z,21.11
2018-04-20T18:50:09.640Z,21.08
2018-04-20T18:51:09.481Z,21.01
2018-04-20T18:52:09.441Z,20.98
2018-04-20T18:53:09.402Z,20.90
2018-04-20T18:54:09.364Z,20.89
2018-04-20T18:55:09.326Z,20.86
2018-04-20T18:56:09.289Z,20.70
2018-04-20T18:57:09.246Z,20.70
2018-04-20T18:58:09.207Z,20.70
2018-04-20T18:59:09.170Z,20.68
2018-04-20T19:00:09.134Z,20.68
2018-04-20T19:01:09.087Z,20.60
2018-04-20T19:02:09.102Z,20.58
2018-04-20T19:03:09.012Z,20.50
2018-04-20T19:04:08.975Z,20.55
2018-04-20T19:05:08.934Z,20.41
2018-04-20T19:06:08.895Z,20.48
2018-04-20T19:07:08.855Z,20.42
2018-04-20T19:08:08.816Z,20.29
2018-04-20T19:09:08.775Z,20.26
2018-04-20T19:10:08.739Z,20.27
2018-04-20T19:11:08.699Z,20.19
2018-04-20T19:12:08.662Z,20.17
2018-04-20T19:13:08.620Z,20.15
2018-04-20T19:14:08.587Z,20.11
2018-04-20T19:15:08.542Z,20.02
2018-04-20T19:16:08.502Z,20.07
2018-04-20T19:17:08.462Z,19.93
2018-04-20T19:18:08.424Z,19.89
2018-04-20T19:19:08.382Z,19.84
2018-04-20T19:20:08.346Z,19.92
2018-04-20T19:21:08.304Z,19.81
2018-04-20T19:22:08.265Z,19.77
2018-04-20T19:23:08.225Z,19.72
2018-04-20T19:24:08.184Z,19.70
2018-04-20T19:25:08.146Z,19.74
2018-04-20T19:26:08.151Z,19.49
2018-04-20T19:27:08.065Z,19.57
2018-04-20T19:28:08.025Z,19.50
2018-04-20T19:29:07.986Z,19.54
2018-04-20T19:30:07.945Z,19.52
2018-04-20T19:31:07.906Z,19.41
2018-04-20T19:32:07.865Z,19.37
2018-04-20T19:33:07.826Z,19.23
2018-04-20T19:34:07.786Z,19.15
2018-04-20T19:35:07.747Z,19.07
2018-04-20T19:36:07.710Z,19.16
2018-04-20T19:37:07.666Z,19.07
2018-04-20T19:38:07.630Z,19.04
2018-04-20T19:39:07.587Z,19.09
2018-04-20T19:40:07.549Z,19.08
2018-04-20T19:41:07.507Z,19.12
2018-04-20T19:42:07.467Z,19.05
2018-04-20T19:43:07.425Z,19.07
2018-04-20T19:44:07.385Z,19.16
2018-04-20T19:45:07.345Z,19.19
2018-04-20T19:46:07.308Z,19.16
2018-04-20T19:47:07.266Z,19.15
2018-04-20T19:48:07.225Z,19.22
2018-04-20T19:49:07.187Z,19.22
2018-04-20T19:50:07.145Z,19.15
2018-04-20T19:51:07.103Z,19.12
2018-04-20T19:52:07.062Z,18.85
2018-04-20T19:53:07.023Z,18.71
2018-04-20T19:54:06.983Z,18.56
2018-04-20T19:55:06.941Z,18.57
2018-04-20T19:56:06.902Z,18.49
2018-04-20T19:57:06.861Z,18.42
2018-04-20T19:58:06.820Z,18.36
2018-04-20T19:59:06.784Z,18.24
2018-04-20T20:00:06.738Z,18.28
2018-04-20T20:01:06.698Z,18.24
2018-04-20T20:02:06.659Z,18.21
2018-04-20T20:03:06.618Z,18.30
2018-04-20T20:04:06.577Z,18.38
2018-04-20T20:05:06.540Z,18.42
2018-04-20T20:06:06.494Z,18.33
2018-04-20T20:07:06.454Z,18.33
2018-04-20T20:08:06.414Z,18.26
2018-04-20T20:09:06.372Z,18.24
2018-04-20T20:10:06.339Z,18.13
2018-04-20T20:11:06.291Z,18.11
2018-04-20T20:12:06.249Z,18.06
2018-04-20T20:13:06.209Z,18.02
2018-04-20T20:14:06.169Z,18.06
2018-04-20T20:15:06.128Z,18.05
2018-04-20T20:16:06.086Z,17.99
2018-04-20T20:17:06.046Z,18.02
2018-04-20T20:18:06.004Z,17.97
2018-04-20T20:19:05.964Z,17.94
2018-04-20T20:20:05.927Z,17.83
2018-04-20T20:21:05.880Z,17.87
2018-04-20T20:22:05.841Z,17.88
2018-04-20T20:23:05.799Z,17.81
2018-04-20T20:24:05.758Z,17.69
2018-04-20T20:25:05.786Z,17.68
2018-04-20T20:26:05.674Z,17.69
2018-04-20T20:27:05.636Z,17.68
2018-04-20T20:28:05.633Z,17.57
2018-04-20T20:29:05.555Z,17.54
2018-04-20T20:30:05.524Z,17.54
2018-04-20T20:31:05.467Z,17.47
2018-04-20T20:32:05.434Z,17.54
2018-04-20T20:33:05.386Z,17.45
2018-04-20T20:34:05.344Z,17.47
2018-04-20T20:35:05.308Z,17.34
2018-04-20T20:36:05.265Z,17.30
2018-04-20T20:37:05.223Z,17.28
2018-04-20T20:38:05.183Z,17.30
2018-04-20T20:39:05.145Z,17.32
2018-04-20T20:40:05.099Z,17.31
2018-04-20T20:41:05.059Z,17.27
2018-04-20T20:42:05.604Z,17.38
2018-04-20T20:43:05.039Z,17.35
2018-04-20T20:44:04.936Z,17.35
2018-04-20T20:45:04.894Z,17.17
2018-04-20T20:46:04.852Z,17.24
2018-04-20T20:47:04.811Z,17.19
2018-04-20T20:48:04.769Z,17.17
2018-04-20T20:49:04.729Z,17.19
2018-04-20T20:50:04.695Z,17.19
2018-04-20T20:51:04.650Z,17.22
2018-04-20T20:52:04.604Z,17.14
2018-04-20T20:53:04.563Z,17.12
2018-04-20T20:54:04.523Z,17.07
2018-04-20T20:55:04.484Z,17.06
2018-04-20T20:56:04.438Z,17.06
2018-04-20T20:57:04.396Z,17.06
2018-04-20T20:58:04.360Z,17.12
2018-04-20T20:59:04.314Z,17.07
2018-04-20T21:00:04.276Z,17.02
2018-04-20T21:01:04.232Z,17.01
2018-04-20T21:02:04.189Z,16.97
2018-04-20T21:03:04.148Z,16.91
2018-04-20T21:04:04.106Z,16.90
2018-04-20T21:05:04.067Z,16.94
2018-04-20T21:06:04.022Z,16.88
2018-04-20T21:07:03.983Z,16.82
2018-04-20T21:08:03.940Z,16.94
2018-04-20T21:09:03.895Z,16.76